sensor_id;sensor_type;location;lat;lon;timestamp;P1;durP1;ratioP1;P2;durP2;ratioP2
20069;SDS011;10195;50.868;4.382;2023-02-04T00:01:43;26.37;;;12.17;;
20069;SDS011;10195;50.868;4.382;2023-02-04T00:04:11;21.27;;;12.03;;
20069;SDS011;10195;50.868;4.382;2023-02-04T00:06:37;22.83;;;12.10;;
20069;SDS011;10195;50.868;4.382;2023-02-04T00:09:03;19.53;;;11.67;;
20069;SDS011;10195;50.868;4.382;2023-02-04T00:11:28;19.63;;;11.90;;
20069;SDS011;10195;50.868;4.382;2023-02-04T00:13:54;21.17;;;11.63;;
20069;SDS011;10195;50.868;4.382;2023-02-04T00:16:20;27.07;;;11.93;;
20069;SDS011;10195;50.868;4.382;2023-02-04T00:18:46;21.73;;;11.90;;
20069;SDS011;10195;50.868;4.382;2023-02-04T00:21:11;24.33;;;11.97;;
20069;SDS011;10195;50.868;4.382;2023-02-04T00:23:37;22.13;;;12.20;;
20069;SDS011;10195;50.868;4.382;2023-02-04T00:26:03;23.67;;;12.53;;
20069;SDS011;10195;50.868;4.382;2023-02-04T00:28:29;23.77;;;11.87;;
20069;SDS011;10195;50.868;4.382;2023-02-04T00:30:55;23.40;;;12.83;;
20069;SDS011;10195;50.868;4.382;2023-02-04T00:33:20;18.77;;;9.90;;
20069;SDS011;10195;50.868;4.382;2023-02-04T00:35:46;22.23;;;11.77;;
20069;SDS011;10195;50.868;4.382;2023-02-04T00:38:11;30.93;;;12.77;;
20069;SDS011;10195;50.868;4.382;2023-02-04T00:40:37;21.47;;;12.10;;
20069;SDS011;10195;50.868;4.382;2023-02-04T00:43:03;24.63;;;11.47;;
20069;SDS011;10195;50.868;4.382;2023-02-04T00:45:29;21.97;;;11.20;;
20069;SDS011;10195;50.868;4.382;2023-02-04T00:47:54;21.77;;;10.27;;
20069;SDS011;10195;50.868;4.382;2023-02-04T00:50:21;20.83;;;10.07;;
20069;SDS011;10195;50.868;4.382;2023-02-04T00:52:47;21.67;;;10.80;;
20069;SDS011;10195;50.868;4.382;2023-02-04T00:55:12;17.10;;;10.73;;
20069;SDS011;10195;50.868;4.382;2023-02-04T00:57:40;20.93;;;11.63;;
20069;SDS011;10195;50.868;4.382;2023-02-04T01:00:07;18.07;;;10.00;;
20069;SDS011;10195;50.868;4.382;2023-02-04T01:02:33;23.47;;;11.60;;
20069;SDS011;10195;50.868;4.382;2023-02-04T01:04:59;20.43;;;10.73;;
20069;SDS011;10195;50.868;4.382;2023-02-04T01:07:24;17.63;;;9.87;;
20069;SDS011;10195;50.868;4.382;2023-02-04T01:09:50;21.10;;;10.63;;
20069;SDS011;10195;50.868;4.382;2023-02-04T01:12:16;17.93;;;10.17;;
20069;SDS011;10195;50.868;4.382;2023-02-04T01:14:41;20.33;;;11.17;;
20069;SDS011;10195;50.868;4.382;2023-02-04T01:17:07;23.33;;;11.63;;
20069;SDS011;10195;50.868;4.382;2023-02-04T01:19:33;21.07;;;11.23;;
20069;SDS011;10195;50.868;4.382;2023-02-04T01:21:58;17.73;;;11.60;;
20069;SDS011;10195;50.868;4.382;2023-02-04T01:24:24;18.77;;;11.60;;
20069;SDS011;10195;50.868;4.382;2023-02-04T01:26:49;23.43;;;12.77;;
20069;SDS011;10195;50.868;4.382;2023-02-04T01:29:15;23.50;;;12.33;;
20069;SDS011;10195;50.868;4.382;2023-02-04T01:31:41;20.00;;;12.40;;
20069;SDS011;10195;50.868;4.382;2023-02-04T01:34:06;25.40;;;13.50;;
20069;SDS011;10195;50.868;4.382;2023-02-04T01:36:32;20.90;;;13.30;;
20069;SDS011;10195;50.868;4.382;2023-02-04T01:38:58;24.30;;;12.63;;
20069;SDS011;10195;50.868;4.382;2023-02-04T01:41:25;22.73;;;12.83;;
20069;SDS011;10195;50.868;4.382;2023-02-04T01:43:51;25.77;;;14.13;;
20069;SDS011;10195;50.868;4.382;2023-02-04T01:46:18;31.40;;;14.17;;
20069;SDS011;10195;50.868;4.382;2023-02-04T01:48:44;24.03;;;13.93;;
20069;SDS011;10195;50.868;4.382;2023-02-04T01:51:10;26.90;;;15.57;;
20069;SDS011;10195;50.868;4.382;2023-02-04T01:53:38;26.23;;;14.17;;
20069;SDS011;10195;50.868;4.382;2023-02-04T01:56:15;26.87;;;16.27;;
20069;SDS011;10195;50.868;4.382;2023-02-04T01:58:43;29.37;;;16.07;;
20069;SDS011;10195;50.868;4.382;2023-02-04T02:01:10;26.67;;;14.93;;
20069;SDS011;10195;50.868;4.382;2023-02-04T02:03:39;26.87;;;15.20;;
20069;SDS011;10195;50.868;4.382;2023-02-04T02:06:04;30.00;;;15.50;;
20069;SDS011;10195;50.868;4.382;2023-02-04T02:08:33;30.23;;;16.17;;
20069;SDS011;10195;50.868;4.382;2023-02-04T02:11:01;27.27;;;14.60;;
20069;SDS011;10195;50.868;4.382;2023-02-04T02:13:27;23.87;;;14.23;;
20069;SDS011;10195;50.868;4.382;2023-02-04T02:15:52;27.80;;;15.03;;
20069;SDS011;10195;50.868;4.382;2023-02-04T02:18:18;28.10;;;15.50;;
20069;SDS011;10195;50.868;4.382;2023-02-04T02:20:44;26.37;;;15.93;;
20069;SDS011;10195;50.868;4.382;2023-02-04T02:25:48;30.53;;;16.53;;
20069;SDS011;10195;50.868;4.382;2023-02-04T02:28:16;42.17;;;22.20;;
20069;SDS011;10195;50.868;4.382;2023-02-04T02:30:44;29.77;;;18.47;;
20069;SDS011;10195;50.868;4.382;2023-02-04T02:33:11;28.07;;;17.07;;
20069;SDS011;10195;50.868;4.382;2023-02-04T02:35:41;27.97;;;17.37;;
20069;SDS011;10195;50.868;4.382;2023-02-04T02:38:10;30.50;;;18.57;;
20069;SDS011;10195;50.868;4.382;2023-02-04T02:40:36;27.57;;;16.77;;
20069;SDS011;10195;50.868;4.382;2023-02-04T02:43:03;31.17;;;18.63;;
20069;SDS011;10195;50.868;4.382;2023-02-04T02:45:30;30.17;;;17.83;;
20069;SDS011;10195;50.868;4.382;2023-02-04T02:47:58;28.33;;;18.40;;
20069;SDS011;10195;50.868;4.382;2023-02-04T02:50:28;29.97;;;17.80;;
20069;SDS011;10195;50.868;4.382;2023-02-04T02:52:56;29.47;;;18.27;;
20069;SDS011;10195;50.868;4.382;2023-02-04T02:55:25;30.93;;;18.13;;
20069;SDS011;10195;50.868;4.382;2023-02-04T02:57:52;26.23;;;17.20;;
20069;SDS011;10195;50.868;4.382;2023-02-04T03:00:21;29.57;;;17.20;;
20069;SDS011;10195;50.868;4.382;2023-02-04T03:05:17;29.50;;;16.80;;
20069;SDS011;10195;50.868;4.382;2023-02-04T03:07:43;29.87;;;18.13;;
20069;SDS011;10195;50.868;4.382;2023-02-04T03:10:09;27.23;;;17.13;;
20069;SDS011;10195;50.868;4.382;2023-02-04T03:12:34;33.77;;;17.43;;
20069;SDS011;10195;50.868;4.382;2023-02-04T03:15:00;32.07;;;18.27;;
20069;SDS011;10195;50.868;4.382;2023-02-04T03:17:27;28.30;;;17.73;;
20069;SDS011;10195;50.868;4.382;2023-02-04T03:19:54;28.57;;;17.33;;
20069;SDS011;10195;50.868;4.382;2023-02-04T03:22:19;27.50;;;18.23;;
20069;SDS011;10195;50.868;4.382;2023-02-04T03:24:45;29.13;;;17.93;;
20069;SDS011;10195;50.868;4.382;2023-02-04T03:27:11;30.97;;;17.80;;
20069;SDS011;10195;50.868;4.382;2023-02-04T03:29:42;31.07;;;17.30;;
20069;SDS011;10195;50.868;4.382;2023-02-04T03:32:09;22.93;;;15.27;;
20069;SDS011;10195;50.868;4.382;2023-02-04T03:34:35;20.33;;;14.80;;
20069;SDS011;10195;50.868;4.382;2023-02-04T03:37:00;18.80;;;14.40;;
20069;SDS011;10195;50.868;4.382;2023-02-04T03:39:26;21.60;;;13.87;;
20069;SDS011;10195;50.868;4.382;2023-02-04T03:41:52;19.37;;;12.90;;
20069;SDS011;10195;50.868;4.382;2023-02-04T03:44:17;22.70;;;13.87;;
20069;SDS011;10195;50.868;4.382;2023-02-04T03:46:43;21.53;;;13.07;;
20069;SDS011;10195;50.868;4.382;2023-02-04T03:49:09;20.73;;;12.97;;
20069;SDS011;10195;50.868;4.382;2023-02-04T03:51:35;18.50;;;12.60;;
20069;SDS011;10195;50.868;4.382;2023-02-04T03:54:00;21.07;;;12.60;;
20069;SDS011;10195;50.868;4.382;2023-02-04T03:56:26;18.93;;;12.97;;
20069;SDS011;10195;50.868;4.382;2023-02-04T03:58:51;21.97;;;12.70;;
20069;SDS011;10195;50.868;4.382;2023-02-04T04:01:17;19.90;;;12.67;;
20069;SDS011;10195;50.868;4.382;2023-02-04T04:03:43;21.53;;;12.50;;
20069;SDS011;10195;50.868;4.382;2023-02-04T04:06:08;19.57;;;11.33;;
20069;SDS011;10195;50.868;4.382;2023-02-04T04:08:35;22.03;;;11.50;;
20069;SDS011;10195;50.868;4.382;2023-02-04T04:11:02;19.00;;;11.90;;
20069;SDS011;10195;50.868;4.382;2023-02-04T04:13:27;16.57;;;10.17;;
20069;SDS011;10195;50.868;4.382;2023-02-04T04:15:53;16.87;;;9.30;;
20069;SDS011;10195;50.868;4.382;2023-02-04T04:18:19;16.57;;;9.77;;
20069;SDS011;10195;50.868;4.382;2023-02-04T04:20:44;16.70;;;9.83;;
20069;SDS011;10195;50.868;4.382;2023-02-04T04:23:10;18.20;;;9.70;;
20069;SDS011;10195;50.868;4.382;2023-02-04T04:25:35;16.80;;;9.57;;
20069;SDS011;10195;50.868;4.382;2023-02-04T04:28:01;18.80;;;11.20;;
20069;SDS011;10195;50.868;4.382;2023-02-04T04:30:27;18.80;;;10.07;;
20069;SDS011;10195;50.868;4.382;2023-02-04T04:32:52;18.37;;;10.80;;
20069;SDS011;10195;50.868;4.382;2023-02-04T04:35:18;18.40;;;10.47;;
20069;SDS011;10195;50.868;4.382;2023-02-04T04:37:44;18.17;;;10.90;;
20069;SDS011;10195;50.868;4.382;2023-02-04T04:40:10;20.70;;;11.13;;
20069;SDS011;10195;50.868;4.382;2023-02-04T04:42:36;20.43;;;11.77;;
20069;SDS011;10195;50.868;4.382;2023-02-04T04:45:02;18.37;;;11.53;;
20069;SDS011;10195;50.868;4.382;2023-02-04T04:47:30;19.73;;;11.53;;
20069;SDS011;10195;50.868;4.382;2023-02-04T04:49:55;21.10;;;11.37;;
20069;SDS011;10195;50.868;4.382;2023-02-04T04:52:21;19.60;;;11.87;;
20069;SDS011;10195;50.868;4.382;2023-02-04T04:54:46;20.80;;;12.40;;
20069;SDS011;10195;50.868;4.382;2023-02-04T04:57:12;21.30;;;12.10;;
20069;SDS011;10195;50.868;4.382;2023-02-04T04:59:38;21.60;;;13.17;;
20069;SDS011;10195;50.868;4.382;2023-02-04T05:02:03;22.33;;;13.87;;
20069;SDS011;10195;50.868;4.382;2023-02-04T05:04:29;22.10;;;12.83;;
20069;SDS011;10195;50.868;4.382;2023-02-04T05:06:54;22.27;;;13.67;;
20069;SDS011;10195;50.868;4.382;2023-02-04T05:09:20;23.70;;;13.53;;
20069;SDS011;10195;50.868;4.382;2023-02-04T05:11:46;24.40;;;13.63;;
20069;SDS011;10195;50.868;4.382;2023-02-04T05:14:11;27.30;;;14.03;;
20069;SDS011;10195;50.868;4.382;2023-02-04T05:16:37;21.67;;;13.23;;
20069;SDS011;10195;50.868;4.382;2023-02-04T05:19:03;23.30;;;13.67;;
20069;SDS011;10195;50.868;4.382;2023-02-04T05:21:28;20.30;;;12.53;;
20069;SDS011;10195;50.868;4.382;2023-02-04T05:23:54;22.07;;;12.97;;
20069;SDS011;10195;50.868;4.382;2023-02-04T05:26:19;22.47;;;13.97;;
20069;SDS011;10195;50.868;4.382;2023-02-04T05:28:45;19.90;;;13.27;;
20069;SDS011;10195;50.868;4.382;2023-02-04T05:31:11;21.30;;;13.47;;
20069;SDS011;10195;50.868;4.382;2023-02-04T05:33:36;27.57;;;14.13;;
20069;SDS011;10195;50.868;4.382;2023-02-04T05:36:02;20.70;;;13.27;;
20069;SDS011;10195;50.868;4.382;2023-02-04T05:38:28;22.50;;;13.30;;
20069;SDS011;10195;50.868;4.382;2023-02-04T05:40:53;21.97;;;14.07;;
20069;SDS011;10195;50.868;4.382;2023-02-04T05:43:19;20.17;;;12.93;;
20069;SDS011;10195;50.868;4.382;2023-02-04T05:45:45;22.27;;;13.40;;
20069;SDS011;10195;50.868;4.382;2023-02-04T05:48:10;24.37;;;13.80;;
20069;SDS011;10195;50.868;4.382;2023-02-04T05:50:36;19.87;;;13.30;;
20069;SDS011;10195;50.868;4.382;2023-02-04T05:53:01;26.50;;;14.37;;
20069;SDS011;10195;50.868;4.382;2023-02-04T05:55:27;23.47;;;13.43;;
20069;SDS011;10195;50.868;4.382;2023-02-04T05:57:53;21.60;;;13.53;;
20069;SDS011;10195;50.868;4.382;2023-02-04T06:00:18;23.97;;;14.73;;
20069;SDS011;10195;50.868;4.382;2023-02-04T06:02:44;22.87;;;14.90;;
20069;SDS011;10195;50.868;4.382;2023-02-04T06:05:10;21.83;;;14.10;;
20069;SDS011;10195;50.868;4.382;2023-02-04T06:07:35;22.40;;;14.57;;
20069;SDS011;10195;50.868;4.382;2023-02-04T06:10:01;24.30;;;14.70;;
20069;SDS011;10195;50.868;4.382;2023-02-04T06:12:27;25.77;;;15.83;;
20069;SDS011;10195;50.868;4.382;2023-02-04T06:14:53;24.80;;;14.77;;
20069;SDS011;10195;50.868;4.382;2023-02-04T06:17:19;25.27;;;14.73;;
20069;SDS011;10195;50.868;4.382;2023-02-04T06:19:45;24.90;;;14.40;;
20069;SDS011;10195;50.868;4.382;2023-02-04T06:22:12;25.63;;;15.80;;
20069;SDS011;10195;50.868;4.382;2023-02-04T06:24:37;27.37;;;15.77;;
20069;SDS011;10195;50.868;4.382;2023-02-04T06:27:03;29.93;;;16.87;;
20069;SDS011;10195;50.868;4.382;2023-02-04T06:29:29;32.43;;;16.40;;
20069;SDS011;10195;50.868;4.382;2023-02-04T06:31:54;33.57;;;17.80;;
20069;SDS011;10195;50.868;4.382;2023-02-04T06:34:20;28.27;;;16.83;;
20069;SDS011;10195;50.868;4.382;2023-02-04T06:36:45;34.83;;;18.33;;
20069;SDS011;10195;50.868;4.382;2023-02-04T06:39:11;34.27;;;18.10;;
20069;SDS011;10195;50.868;4.382;2023-02-04T06:41:37;33.10;;;17.00;;
20069;SDS011;10195;50.868;4.382;2023-02-04T06:44:02;37.97;;;18.87;;
20069;SDS011;10195;50.868;4.382;2023-02-04T06:46:28;28.23;;;15.37;;
20069;SDS011;10195;50.868;4.382;2023-02-04T06:48:54;31.80;;;17.03;;
20069;SDS011;10195;50.868;4.382;2023-02-04T06:51:20;37.07;;;17.93;;
20069;SDS011;10195;50.868;4.382;2023-02-04T06:53:46;33.07;;;17.73;;
20069;SDS011;10195;50.868;4.382;2023-02-04T06:56:11;43.00;;;19.30;;
20069;SDS011;10195;50.868;4.382;2023-02-04T06:58:37;28.63;;;17.00;;
20069;SDS011;10195;50.868;4.382;2023-02-04T07:01:03;34.33;;;18.70;;
20069;SDS011;10195;50.868;4.382;2023-02-04T07:03:30;29.40;;;17.47;;
20069;SDS011;10195;50.868;4.382;2023-02-04T07:05:55;32.00;;;18.60;;
20069;SDS011;10195;50.868;4.382;2023-02-04T07:08:21;38.53;;;19.33;;
20069;SDS011;10195;50.868;4.382;2023-02-04T07:10:47;35.30;;;18.47;;
20069;SDS011;10195;50.868;4.382;2023-02-04T07:13:12;37.00;;;19.83;;
20069;SDS011;10195;50.868;4.382;2023-02-04T07:15:38;34.57;;;18.43;;
20069;SDS011;10195;50.868;4.382;2023-02-04T07:18:03;31.77;;;17.83;;
20069;SDS011;10195;50.868;4.382;2023-02-04T07:20:29;35.87;;;19.40;;
20069;SDS011;10195;50.868;4.382;2023-02-04T07:22:55;37.57;;;18.43;;
20069;SDS011;10195;50.868;4.382;2023-02-04T07:25:20;36.67;;;19.17;;
20069;SDS011;10195;50.868;4.382;2023-02-04T07:27:46;35.50;;;18.60;;
20069;SDS011;10195;50.868;4.382;2023-02-04T07:30:12;38.97;;;18.93;;
20069;SDS011;10195;50.868;4.382;2023-02-04T07:32:38;34.63;;;18.07;;
20069;SDS011;10195;50.868;4.382;2023-02-04T07:35:03;36.30;;;18.67;;
20069;SDS011;10195;50.868;4.382;2023-02-04T07:37:29;33.53;;;18.30;;
20069;SDS011;10195;50.868;4.382;2023-02-04T07:39:55;34.03;;;18.27;;
20069;SDS011;10195;50.868;4.382;2023-02-04T07:42:20;31.17;;;18.33;;
20069;SDS011;10195;50.868;4.382;2023-02-04T07:44:46;32.97;;;17.07;;
20069;SDS011;10195;50.868;4.382;2023-02-04T07:47:12;39.60;;;18.00;;
20069;SDS011;10195;50.868;4.382;2023-02-04T07:49:38;41.17;;;19.80;;
20069;SDS011;10195;50.868;4.382;2023-02-04T07:52:04;36.00;;;18.67;;
20069;SDS011;10195;50.868;4.382;2023-02-04T07:54:29;36.43;;;17.83;;
20069;SDS011;10195;50.868;4.382;2023-02-04T07:56:55;34.87;;;17.10;;
20069;SDS011;10195;50.868;4.382;2023-02-04T07:59:21;33.97;;;17.07;;
20069;SDS011;10195;50.868;4.382;2023-02-04T08:01:47;31.57;;;16.83;;
20069;SDS011;10195;50.868;4.382;2023-02-04T08:04:13;32.53;;;15.97;;
20069;SDS011;10195;50.868;4.382;2023-02-04T08:06:39;29.47;;;15.87;;
20069;SDS011;10195;50.868;4.382;2023-02-04T08:09:05;29.87;;;14.53;;
20069;SDS011;10195;50.868;4.382;2023-02-04T08:11:30;31.63;;;16.70;;
20069;SDS011;10195;50.868;4.382;2023-02-04T08:13:56;27.80;;;15.33;;
20069;SDS011;10195;50.868;4.382;2023-02-04T08:16:22;27.87;;;14.00;;
20069;SDS011;10195;50.868;4.382;2023-02-04T08:18:47;22.47;;;13.27;;
20069;SDS011;10195;50.868;4.382;2023-02-04T08:21:13;28.47;;;14.30;;
20069;SDS011;10195;50.868;4.382;2023-02-04T08:23:38;27.27;;;15.07;;
20069;SDS011;10195;50.868;4.382;2023-02-04T08:26:07;28.97;;;15.03;;
20069;SDS011;10195;50.868;4.382;2023-02-04T08:28:35;29.00;;;14.70;;
20069;SDS011;10195;50.868;4.382;2023-02-04T08:31:01;25.83;;;13.77;;
20069;SDS011;10195;50.868;4.382;2023-02-04T08:33:28;22.83;;;13.30;;
20069;SDS011;10195;50.868;4.382;2023-02-04T08:35:54;21.67;;;12.50;;
20069;SDS011;10195;50.868;4.382;2023-02-04T08:38:19;17.17;;;11.33;;
20069;SDS011;10195;50.868;4.382;2023-02-04T08:40:45;18.17;;;10.90;;
20069;SDS011;10195;50.868;4.382;2023-02-04T08:43:11;22.53;;;12.83;;
20069;SDS011;10195;50.868;4.382;2023-02-04T08:45:36;23.13;;;11.93;;
20069;SDS011;10195;50.868;4.382;2023-02-04T08:48:02;23.77;;;12.30;;
20069;SDS011;10195;50.868;4.382;2023-02-04T08:50:28;20.70;;;11.80;;
20069;SDS011;10195;50.868;4.382;2023-02-04T08:52:55;16.80;;;9.27;;
20069;SDS011;10195;50.868;4.382;2023-02-04T08:55:20;18.27;;;10.07;;
20069;SDS011;10195;50.868;4.382;2023-02-04T08:57:46;14.80;;;9.00;;
20069;SDS011;10195;50.868;4.382;2023-02-04T09:00:12;13.47;;;8.60;;
20069;SDS011;10195;50.868;4.382;2023-02-04T09:02:38;14.30;;;8.50;;
20069;SDS011;10195;50.868;4.382;2023-02-04T09:05:04;14.83;;;8.93;;
20069;SDS011;10195;50.868;4.382;2023-02-04T09:07:29;13.43;;;8.47;;
20069;SDS011;10195;50.868;4.382;2023-02-04T09:09:55;12.10;;;8.13;;
20069;SDS011;10195;50.868;4.382;2023-02-04T09:12:21;13.33;;;8.17;;
20069;SDS011;10195;50.868;4.382;2023-02-04T09:14:46;14.60;;;8.47;;
20069;SDS011;10195;50.868;4.382;2023-02-04T09:17:12;11.43;;;6.73;;
20069;SDS011;10195;50.868;4.382;2023-02-04T09:19:38;10.37;;;6.80;;
20069;SDS011;10195;50.868;4.382;2023-02-04T09:22:04;10.10;;;6.77;;
20069;SDS011;10195;50.868;4.382;2023-02-04T09:24:29;9.73;;;6.43;;
20069;SDS011;10195;50.868;4.382;2023-02-04T09:26:55;12.33;;;7.13;;
20069;SDS011;10195;50.868;4.382;2023-02-04T09:29:20;11.20;;;7.17;;
20069;SDS011;10195;50.868;4.382;2023-02-04T09:31:46;10.90;;;6.90;;
20069;SDS011;10195;50.868;4.382;2023-02-04T09:34:12;10.60;;;6.47;;
20069;SDS011;10195;50.868;4.382;2023-02-04T09:36:38;8.13;;;5.80;;
20069;SDS011;10195;50.868;4.382;2023-02-04T09:39:04;9.00;;;5.67;;
20069;SDS011;10195;50.868;4.382;2023-02-04T09:41:31;8.63;;;4.93;;
20069;SDS011;10195;50.868;4.382;2023-02-04T09:43:58;10.33;;;4.70;;
20069;SDS011;10195;50.868;4.382;2023-02-04T09:46:24;7.37;;;4.47;;
20069;SDS011;10195;50.868;4.382;2023-02-04T09:48:54;6.60;;;4.07;;
20069;SDS011;10195;50.868;4.382;2023-02-04T09:51:26;6.30;;;4.73;;
20069;SDS011;10195;50.868;4.382;2023-02-04T09:53:53;8.30;;;4.13;;
20069;SDS011;10195;50.868;4.382;2023-02-04T09:56:29;6.27;;;4.40;;
20069;SDS011;10195;50.868;4.382;2023-02-04T09:58:55;9.00;;;4.77;;
20069;SDS011;10195;50.868;4.382;2023-02-04T10:01:21;6.03;;;4.47;;
20069;SDS011;10195;50.868;4.382;2023-02-04T10:03:47;7.93;;;4.47;;
20069;SDS011;10195;50.868;4.382;2023-02-04T10:06:19;5.60;;;4.27;;
20069;SDS011;10195;50.868;4.382;2023-02-04T10:08:46;5.83;;;3.53;;
20069;SDS011;10195;50.868;4.382;2023-02-04T10:11:14;7.77;;;2.60;;
20069;SDS011;10195;50.868;4.382;2023-02-04T10:13:45;3.67;;;1.93;;
20069;SDS011;10195;50.868;4.382;2023-02-04T10:16:20;5.30;;;2.10;;
20069;SDS011;10195;50.868;4.382;2023-02-04T10:21:25;3.70;;;2.47;;
20069;SDS011;10195;50.868;4.382;2023-02-04T10:23:54;8.97;;;2.80;;
20069;SDS011;10195;50.868;4.382;2023-02-04T10:26:22;5.13;;;3.03;;
20069;SDS011;10195;50.868;4.382;2023-02-04T10:28:49;7.57;;;3.33;;
20069;SDS011;10195;50.868;4.382;2023-02-04T10:31:29;6.67;;;3.40;;
20069;SDS011;10195;50.868;4.382;2023-02-04T10:34:02;9.33;;;3.43;;
20069;SDS011;10195;50.868;4.382;2023-02-04T10:36:29;7.63;;;4.50;;
20069;SDS011;10195;50.868;4.382;2023-02-04T10:39:02;6.47;;;4.63;;
20069;SDS011;10195;50.868;4.382;2023-02-04T10:41:29;8.70;;;5.00;;
20069;SDS011;10195;50.868;4.382;2023-02-04T10:44:02;8.03;;;4.90;;
20069;SDS011;10195;50.868;4.382;2023-02-04T10:46:34;6.67;;;4.40;;
20069;SDS011;10195;50.868;4.382;2023-02-04T10:49:02;4.83;;;3.30;;
20069;SDS011;10195;50.868;4.382;2023-02-04T10:51:41;3.80;;;3.40;;
20069;SDS011;10195;50.868;4.382;2023-02-04T10:54:09;6.50;;;4.27;;
20069;SDS011;10195;50.868;4.382;2023-02-04T10:56:59;4.23;;;3.40;;
20069;SDS011;10195;50.868;4.382;2023-02-04T10:59:30;5.63;;;3.60;;
20069;SDS011;10195;50.868;4.382;2023-02-04T11:01:56;3.37;;;2.93;;
20069;SDS011;10195;50.868;4.382;2023-02-04T11:04:25;7.40;;;3.27;;
20069;SDS011;10195;50.868;4.382;2023-02-04T11:06:52;4.00;;;3.53;;
20069;SDS011;10195;50.868;4.382;2023-02-04T11:09:19;4.47;;;3.80;;
20069;SDS011;10195;50.868;4.382;2023-02-04T11:11:49;5.17;;;3.77;;
20069;SDS011;10195;50.868;4.382;2023-02-04T11:14:22;5.30;;;3.50;;
20069;SDS011;10195;50.868;4.382;2023-02-04T11:16:53;6.20;;;4.20;;
20069;SDS011;10195;50.868;4.382;2023-02-04T11:19:36;4.33;;;3.50;;
20069;SDS011;10195;50.868;4.382;2023-02-04T11:22:04;7.60;;;4.40;;
20069;SDS011;10195;50.868;4.382;2023-02-04T11:24:32;6.00;;;3.90;;
20069;SDS011;10195;50.868;4.382;2023-02-04T11:27:18;4.33;;;3.77;;
20069;SDS011;10195;50.868;4.382;2023-02-04T11:29:49;5.10;;;4.07;;
20069;SDS011;10195;50.868;4.382;2023-02-04T11:35:05;4.63;;;4.10;;
20069;SDS011;10195;50.868;4.382;2023-02-04T11:37:38;6.03;;;4.40;;
20069;SDS011;10195;50.868;4.382;2023-02-04T11:42:55;5.00;;;4.47;;
20069;SDS011;10195;50.868;4.382;2023-02-04T11:45:24;5.83;;;4.50;;
20069;SDS011;10195;50.868;4.382;2023-02-04T11:47:52;5.93;;;5.03;;
20069;SDS011;10195;50.868;4.382;2023-02-04T11:50:23;6.93;;;5.03;;
20069;SDS011;10195;50.868;4.382;2023-02-04T11:52:53;6.70;;;5.30;;
20069;SDS011;10195;50.868;4.382;2023-02-04T11:55:19;7.33;;;4.80;;
20069;SDS011;10195;50.868;4.382;2023-02-04T11:57:45;6.60;;;5.37;;
20069;SDS011;10195;50.868;4.382;2023-02-04T12:00:17;9.20;;;5.20;;
20069;SDS011;10195;50.868;4.382;2023-02-04T12:03:04;9.27;;;5.27;;
20069;SDS011;10195;50.868;4.382;2023-02-04T12:05:44;8.33;;;5.50;;
20069;SDS011;10195;50.868;4.382;2023-02-04T12:13:46;8.37;;;6.00;;
20069;SDS011;10195;50.868;4.382;2023-02-04T12:16:13;8.53;;;5.93;;
20069;SDS011;10195;50.868;4.382;2023-02-04T12:18:39;9.13;;;6.20;;
20069;SDS011;10195;50.868;4.382;2023-02-04T12:21:05;8.03;;;5.50;;
20069;SDS011;10195;50.868;4.382;2023-02-04T12:23:31;9.63;;;7.20;;
20069;SDS011;10195;50.868;4.382;2023-02-04T12:25:57;10.23;;;7.67;;
20069;SDS011;10195;50.868;4.382;2023-02-04T12:28:23;9.60;;;6.67;;
20069;SDS011;10195;50.868;4.382;2023-02-04T12:30:49;10.03;;;6.67;;
20069;SDS011;10195;50.868;4.382;2023-02-04T12:33:14;14.43;;;9.67;;
20069;SDS011;10195;50.868;4.382;2023-02-04T12:35:41;12.13;;;7.80;;
20069;SDS011;10195;50.868;4.382;2023-02-04T12:38:06;9.43;;;6.57;;
20069;SDS011;10195;50.868;4.382;2023-02-04T12:40:33;12.17;;;7.47;;
20069;SDS011;10195;50.868;4.382;2023-02-04T12:42:59;15.37;;;8.27;;
20069;SDS011;10195;50.868;4.382;2023-02-04T12:45:25;11.10;;;8.40;;
20069;SDS011;10195;50.868;4.382;2023-02-04T12:47:50;14.77;;;8.40;;
20069;SDS011;10195;50.868;4.382;2023-02-04T12:50:16;10.30;;;7.47;;
20069;SDS011;10195;50.868;4.382;2023-02-04T12:52:52;13.47;;;7.93;;
20069;SDS011;10195;50.868;4.382;2023-02-04T12:55:20;15.57;;;8.77;;
20069;SDS011;10195;50.868;4.382;2023-02-04T12:57:47;12.50;;;7.70;;
20069;SDS011;10195;50.868;4.382;2023-02-04T13:00:13;15.87;;;8.50;;
20069;SDS011;10195;50.868;4.382;2023-02-04T13:02:40;17.73;;;9.70;;
20069;SDS011;10195;50.868;4.382;2023-02-04T13:05:06;15.70;;;9.67;;
20069;SDS011;10195;50.868;4.382;2023-02-04T13:07:32;18.20;;;9.77;;
20069;SDS011;10195;50.868;4.382;2023-02-04T13:09:58;17.93;;;10.03;;
20069;SDS011;10195;50.868;4.382;2023-02-04T13:12:25;14.40;;;9.07;;
20069;SDS011;10195;50.868;4.382;2023-02-04T13:14:50;16.33;;;9.90;;
20069;SDS011;10195;50.868;4.382;2023-02-04T13:17:16;18.83;;;11.03;;
20069;SDS011;10195;50.868;4.382;2023-02-04T13:19:42;17.17;;;10.73;;
20069;SDS011;10195;50.868;4.382;2023-02-04T13:22:07;18.70;;;10.63;;
20069;SDS011;10195;50.868;4.382;2023-02-04T13:24:33;20.77;;;10.60;;
20069;SDS011;10195;50.868;4.382;2023-02-04T13:26:59;17.87;;;10.03;;
20069;SDS011;10195;50.868;4.382;2023-02-04T13:29:24;20.20;;;10.70;;
20069;SDS011;10195;50.868;4.382;2023-02-04T13:31:50;20.87;;;10.97;;
20069;SDS011;10195;50.868;4.382;2023-02-04T13:34:16;21.40;;;11.53;;
20069;SDS011;10195;50.868;4.382;2023-02-04T13:36:42;19.00;;;10.77;;
20069;SDS011;10195;50.868;4.382;2023-02-04T13:39:08;20.90;;;11.40;;
20069;SDS011;10195;50.868;4.382;2023-02-04T13:41:34;17.87;;;10.47;;
20069;SDS011;10195;50.868;4.382;2023-02-04T13:44:00;20.13;;;11.00;;
20069;SDS011;10195;50.868;4.382;2023-02-04T13:46:26;19.23;;;10.60;;
20069;SDS011;10195;50.868;4.382;2023-02-04T13:48:52;19.70;;;11.37;;
20069;SDS011;10195;50.868;4.382;2023-02-04T13:51:18;19.10;;;11.70;;
20069;SDS011;10195;50.868;4.382;2023-02-04T13:53:44;25.73;;;11.57;;
20069;SDS011;10195;50.868;4.382;2023-02-04T13:56:09;20.03;;;11.43;;
20069;SDS011;10195;50.868;4.382;2023-02-04T13:58:35;21.40;;;11.03;;
20069;SDS011;10195;50.868;4.382;2023-02-04T14:01:01;19.83;;;11.70;;
20069;SDS011;10195;50.868;4.382;2023-02-04T14:03:27;21.17;;;10.93;;
20069;SDS011;10195;50.868;4.382;2023-02-04T14:05:53;23.30;;;12.00;;
20069;SDS011;10195;50.868;4.382;2023-02-04T14:08:20;23.30;;;12.13;;
20069;SDS011;10195;50.868;4.382;2023-02-04T14:10:46;17.90;;;11.60;;
20069;SDS011;10195;50.868;4.382;2023-02-04T14:13:12;22.10;;;12.10;;
20069;SDS011;10195;50.868;4.382;2023-02-04T14:15:38;20.03;;;11.80;;
20069;SDS011;10195;50.868;4.382;2023-02-04T14:18:05;21.37;;;11.17;;
20069;SDS011;10195;50.868;4.382;2023-02-04T14:20:32;20.57;;;11.40;;
20069;SDS011;10195;50.868;4.382;2023-02-04T14:22:58;20.17;;;12.10;;
20069;SDS011;10195;50.868;4.382;2023-02-04T14:25:23;21.30;;;12.07;;
20069;SDS011;10195;50.868;4.382;2023-02-04T14:27:49;20.57;;;12.20;;
20069;SDS011;10195;50.868;4.382;2023-02-04T14:30:25;21.53;;;12.30;;
20069;SDS011;10195;50.868;4.382;2023-02-04T14:32:52;26.30;;;13.60;;
20069;SDS011;10195;50.868;4.382;2023-02-04T14:35:18;26.57;;;14.43;;
20069;SDS011;10195;50.868;4.382;2023-02-04T14:37:44;27.63;;;13.30;;
20069;SDS011;10195;50.868;4.382;2023-02-04T14:40:11;28.60;;;16.90;;
20069;SDS011;10195;50.868;4.382;2023-02-04T14:42:38;27.90;;;17.50;;
20069;SDS011;10195;50.868;4.382;2023-02-04T14:45:05;31.97;;;19.47;;